Time;durP1;ratioP1;P1;durP2;ratioP2;P2;SDS_P1;SDS_P2;PMS_P1;PMS_P2;Temp;Humidity;BMP_temperature;BMP_pressure;BME280_temperature;BME280_humidity;BME280_pressure;Samples;Min_cycle;Max_cycle;Signal;HPM_P1;HPM_P2
2022/01/04 00:00:45;;;;;;;2.07;0.60;;;;;;;6.60;82.21;98146.86;1680712;83;21036;-59
2022/01/04 00:03:11;;;;;;;1.70;0.50;;;;;;;6.62;82.20;98150.31;1680834;83;21724;-57
2022/01/04 00:05:38;;;;;;;1.53;0.50;;;;;;;6.63;82.16;98152.05;1683324;81;21703;-58
2022/01/04 00:08:09;;;;;;;1.70;0.60;;;;;;;6.65;82.16;98149.25;1720880;81;21536;-57
2022/01/04 00:10:35;;;;;;;0.70;0.50;;;;;;;6.69;82.10;98149.48;1720789;81;21124;-59
2022/01/04 00:13:23;;;;;;;1.03;0.50;;;;;;;6.69;81.99;98146.80;1723179;81;21482;-58
2022/01/04 00:15:54;;;;;;;1.60;0.50;;;;;;;6.69;81.89;98158.84;1719674;81;20944;-57
2022/01/04 00:18:23;;;;;;;0.80;0.50;;;;;;;6.65;81.83;98160.81;1721248;81;20919;-58
2022/01/04 00:20:49;;;;;;;1.47;0.40;;;;;;;6.62;81.83;98158.81;1720304;81;21853;-58
2022/01/04 00:23:16;;;;;;;0.50;0.40;;;;;;;6.59;81.92;98162.52;1718300;81;22400;-59
2022/01/04 00:25:42;;;;;;;0.93;0.37;;;;;;;6.59;81.92;98162.52;1719911;81;21464;-58
2022/01/04 00:28:10;;;;;;;0.50;0.40;;;;;;;6.58;81.97;98163.45;1718003;81;21099;-56
2022/01/04 00:30:38;;;;;;;0.60;0.33;;;;;;;6.58;82.02;98170.14;1715685;81;21486;-59
2022/01/04 00:33:06;;;;;;;1.20;0.40;;;;;;;6.57;82.07;98164.41;1726149;81;21253;-58
2022/01/04 00:35:33;;;;;;;0.70;0.40;;;;;;;6.58;82.14;98174.63;1721310;81;21095;-59
2022/01/04 00:37:59;;;;;;;1.23;0.40;;;;;;;6.57;82.19;98180.91;1724132;81;22869;-56
2022/01/04 00:40:26;;;;;;;0.70;0.50;;;;;;;6.56;82.28;98184.06;1726026;81;21584;-55
2022/01/04 00:42:55;;;;;;;0.60;0.40;;;;;;;6.55;82.34;98183.67;1722823;81;22913;-58
2022/01/04 00:45:26;;;;;;;1.73;0.40;;;;;;;6.52;82.36;98185.67;1724766;81;21103;-57
2022/01/04 00:50:22;;;;;;;0.63;0.37;;;;;;;6.46;82.56;98190.91;1703024;82;21072;-58
2022/01/04 00:52:49;;;;;;;1.23;0.50;;;;;;;6.46;82.71;98194.91;1700649;82;21088;-59
2022/01/04 00:55:16;;;;;;;1.43;0.40;;;;;;;6.49;82.81;98195.19;1703535;82;21120;-58
2022/01/04 00:57:42;;;;;;;3.80;0.50;;;;;;;6.49;82.87;98188.51;1705299;80;21096;-55
2022/01/04 01:00:10;;;;;;;2.10;0.40;;;;;;;6.50;82.91;98195.11;1704108;82;21076;-58
2022/01/04 01:02:37;;;;;;;0.67;0.40;;;;;;;6.53;82.94;98194.09;1702640;82;21087;-59
2022/01/04 01:05:05;;;;;;;0.80;0.40;;;;;;;6.55;82.97;98196.20;1703498;82;21103;-56
2022/01/04 01:07:33;;;;;;;0.80;0.50;;;;;;;6.57;82.95;98195.14;1703757;82;21796;-58
2022/01/04 01:10:16;;;;;;;0.50;0.40;;;;;;;6.56;82.99;98198.77;1664983;84;21113;-56
2022/01/04 01:12:31;;;;;;;0.43;0.40;;;;;;;6.57;82.95;98202.30;1633419;85;21415;-56
2022/01/04 01:14:59;;;;;;;1.25;0.45;;;;;;;6.56;82.96;98193.89;1652384;84;21435;-57
2022/01/04 01:17:25;;;;;;;0.50;0.30;;;;;;;6.53;83.00;98196.28;1649301;84;21574;-56
2022/01/04 01:19:53;;;;;;;1.27;0.30;;;;;;;6.51;83.07;98201.32;1652113;84;22516;-55
2022/01/04 01:22:20;;;;;;;0.40;0.30;;;;;;;6.52;83.15;98200.38;1653868;84;21769;-56
2022/01/04 01:24:46;;;;;;;1.17;0.30;;;;;;;6.50;83.12;98203.60;1653250;84;21756;-56
2022/01/04 01:27:14;;;;;;;1.07;0.40;;;;;;;6.50;83.19;98201.80;1652011;84;21472;-59
2022/01/04 01:29:41;;;;;;;0.40;0.30;;;;;;;6.50;83.23;98205.80;1653238;84;21076;-58
2022/01/04 01:32:08;;;;;;;0.70;0.37;;;;;;;6.51;83.31;98203.52;1652944;84;21102;-58
2022/01/04 01:34:35;;;;;;;3.37;0.40;;;;;;;6.53;83.33;98211.46;1635751;84;21005;-58
2022/01/04 01:37:01;;;;;;;0.33;0.30;;;;;;;6.50;83.32;98205.80;1655402;84;21049;-59
2022/01/04 01:39:27;;;;;;;0.90;0.30;;;;;;;6.48;83.34;98208.16;1654909;84;21037;-58
2022/01/04 01:41:54;;;;;;;0.40;0.23;;;;;;;6.46;83.35;98212.28;1654397;84;20961;-59
2022/01/04 01:44:21;;;;;;;0.50;0.30;;;;;;;6.46;83.40;98213.62;1658631;84;22045;-58
2022/01/04 01:46:48;;;;;;;0.63;0.40;;;;;;;6.44;83.35;98211.50;1654023;84;21073;-59
2022/01/04 01:49:14;;;;;;;3.03;0.40;;;;;;;6.41;83.44;98207.66;1725786;81;20996;-57
2022/01/04 01:51:40;;;;;;;0.60;0.40;;;;;;;6.42;83.57;98214.73;1722648;81;20929;-56
2022/01/04 01:54:07;;;;;;;1.43;0.40;;;;;;;6.42;83.60;98207.58;1721147;81;20988;-60
2022/01/04 01:56:33;;;;;;;0.73;0.40;;;;;;;6.42;83.69;98213.39;1721808;81;21080;-58
2022/01/04 01:59:00;;;;;;;0.60;0.40;;;;;;;6.42;83.72;98211.58;1721439;81;20965;-58
2022/01/04 02:01:26;;;;;;;1.40;0.40;;;;;;;6.42;83.78;98205.38;1723379;81;21048;-57
2022/01/04 02:03:54;;;;;;;0.90;0.40;;;;;;;6.41;83.94;98213.00;1726238;81;20921;-56
2022/01/04 02:06:21;;;;;;;2.15;0.30;;;;;;;6.43;84.07;98220.47;1724689;81;20895;-57
2022/01/04 02:08:47;;;;;;;0.33;0.20;;;;;;;6.43;84.07;98221.80;1720868;81;21767;-58
2022/01/04 02:11:14;;;;;;;0.70;0.23;;;;;;;6.42;84.09;98218.73;1724834;81;20913;-58
2022/01/04 02:13:40;;;;;;;0.40;0.30;;;;;;;6.42;84.16;98228.95;1718606;81;21590;-59
2022/01/04 02:16:08;;;;;;;0.50;0.23;;;;;;;6.42;84.12;98232.97;1721710;81;21381;-57
2022/01/04 02:18:35;;;;;;;0.47;0.30;;;;;;;6.40;84.03;98228.17;1722523;81;20926;-57
2022/01/04 02:21:01;;;;;;;0.30;0.30;;;;;;;6.36;84.01;98231.98;1725146;81;21385;-57
2022/01/04 02:23:28;;;;;;;0.40;0.30;;;;;;;6.34;84.00;98239.20;1723643;81;21447;-58
2022/01/04 02:25:56;;;;;;;0.63;0.40;;;;;;;6.29;83.93;98234.60;1724640;81;21395;-58
2022/01/04 02:28:24;;;;;;;1.57;0.30;;;;;;;6.24;83.94;98226.43;1718073;81;21064;-57
2022/01/04 02:30:51;;;;;;;0.40;0.30;;;;;;;6.20;84.07;98220.88;1721808;81;21389;-55
2022/01/04 02:33:17;;;;;;;0.20;0.20;;;;;;;6.17;84.16;98225.05;1721137;81;21140;-59
2022/01/04 02:35:43;;;;;;;0.40;0.30;;;;;;;6.15;84.30;98225.13;1720547;81;21088;-59
2022/01/04 02:38:10;;;;;;;0.40;0.30;;;;;;;6.12;84.37;98218.63;1722143;81;21127;-57
2022/01/04 02:40:38;;;;;;;0.40;0.20;;;;;;;6.11;84.41;98216.91;1721160;81;21096;-58
2022/01/04 02:43:05;;;;;;;0.40;0.20;;;;;;;6.08;84.53;98216.59;1722825;81;21059;-55
2022/01/04 02:45:31;;;;;;;0.77;0.30;;;;;;;6.07;84.60;98218.86;1721617;81;21127;-58
2022/01/04 02:47:57;;;;;;;0.40;0.30;;;;;;;6.07;84.69;98220.20;1719362;81;21072;-57
2022/01/04 02:50:24;;;;;;;0.20;0.10;;;;;;;6.08;84.71;98213.05;1722155;81;21120;-57
2022/01/04 02:52:51;;;;;;;0.30;0.20;;;;;;;6.07;84.72;98218.86;1720669;81;21087;-56
2022/01/04 02:55:18;;;;;;;0.43;0.20;;;;;;;6.07;84.77;98227.34;1721915;81;21484;-59
2022/01/04 02:57:44;;;;;;;0.37;0.30;;;;;;;6.07;84.70;98230.02;1722528;81;21935;-56
2022/01/04 03:00:13;;;;;;;0.40;0.20;;;;;;;6.06;84.75;98226.48;1723784;81;21658;-57
2022/01/04 03:02:40;;;;;;;0.50;0.27;;;;;;;6.07;84.77;98230.89;1720315;81;21151;-57
2022/01/04 03:05:07;;;;;;;0.40;0.30;;;;;;;6.07;84.67;98233.55;1718390;81;21122;-55
2022/01/04 03:07:34;;;;;;;0.50;0.20;;;;;;;6.05;84.61;98229.23;1722231;81;21081;-56
2022/01/04 03:10:00;;;;;;;0.30;0.20;;;;;;;6.03;84.58;98219.13;1720724;81;21127;-57
2022/01/04 03:12:27;;;;;;;0.90;0.20;;;;;;;6.03;84.57;98228.01;1717545;81;21065;-57
2022/01/04 03:14:53;;;;;;;0.17;0.10;;;;;;;6.04;84.52;98228.37;1719680;81;21067;-59
2022/01/04 03:17:19;;;;;;;0.30;0.20;;;;;;;6.02;84.45;98234.30;1718081;81;21088;-58
2022/01/04 03:19:46;;;;;;;0.47;0.20;;;;;;;6.04;84.38;98232.84;1718402;81;21363;-56
2022/01/04 03:22:13;;;;;;;0.97;0.30;;;;;;;6.03;84.35;98242.70;1720792;81;22327;-56
2022/01/04 03:24:40;;;;;;;0.67;0.30;;;;;;;6.01;84.26;98235.70;1723062;81;21143;-58
2022/01/04 03:27:06;;;;;;;0.20;0.10;;;;;;;6.00;84.26;98235.31;1722933;81;21501;-56
2022/01/04 03:29:34;;;;;;;0.30;0.10;;;;;;;6.00;84.26;98239.31;1722366;81;21103;-56
2022/01/04 03:32:00;;;;;;;1.17;0.17;;;;;;;6.00;84.25;98239.31;1718942;81;21286;-57
2022/01/04 03:34:27;;;;;;;0.50;0.13;;;;;;;6.00;84.22;98247.33;1720555;81;22460;-60
2022/01/04 03:36:53;;;;;;;0.50;0.20;;;;;;;5.98;84.24;98252.75;1723097;81;21557;-59
2022/01/04 03:39:19;;;;;;;0.63;0.20;;;;;;;6.00;84.29;98251.33;1717145;81;21470;-55
2022/01/04 03:41:46;;;;;;;0.50;0.30;;;;;;;6.02;84.29;98254.80;1721528;81;21728;-59
2022/01/04 03:44:18;;;;;;;0.40;0.30;;;;;;;6.02;84.33;98252.98;1721650;81;21079;-59
2022/01/04 03:46:42;;;;;;;0.30;0.30;;;;;;;6.02;84.37;98256.13;1719799;81;21138;-55
2022/01/04 03:49:09;;;;;;;0.70;0.33;;;;;;;6.02;84.42;98260.13;1719784;81;21420;-56
2022/01/04 03:51:35;;;;;;;1.40;0.23;;;;;;;6.02;84.52;98270.82;1720375;81;22173;-58
2022/01/04 03:54:02;;;;;;;0.40;0.20;;;;;;;6.03;84.61;98270.75;1719755;81;21554;-56
2022/01/04 03:56:29;;;;;;;0.30;0.20;;;;;;;6.04;84.60;98276.92;1721702;80;21020;-58
2022/01/04 03:58:55;;;;;;;0.20;0.20;;;;;;;6.05;84.65;98275.98;1719379;81;21146;-57
2022/01/04 04:01:21;;;;;;;0.40;0.30;;;;;;;6.05;84.77;98278.18;1719821;81;21076;-57
2022/01/04 04:03:48;;;;;;;0.93;0.20;;;;;;;6.06;84.76;98279.91;1722006;81;21037;-57
2022/01/04 04:06:15;;;;;;;0.50;0.30;;;;;;;6.05;84.88;98277.31;1723637;81;20854;-56
2022/01/04 04:08:42;;;;;;;0.47;0.40;;;;;;;6.04;84.88;98279.59;1718182;81;21072;-56
2022/01/04 04:11:09;;;;;;;1.20;0.50;;;;;;;6.03;85.01;98280.09;1721432;81;21128;-57
2022/01/04 04:16:34;;;;;;;1.20;0.60;;;;;;;6.06;85.14;98287.92;1842277;74;22574;-57
2022/01/04 04:19:00;;;;;;;0.70;0.70;;;;;;;6.00;85.20;98297.61;1839113;75;22228;-56
2022/01/04 04:21:28;;;;;;;0.83;0.67;;;;;;;5.99;85.25;98295.88;1840138;75;21349;-57
2022/01/04 04:23:54;;;;;;;1.70;0.57;;;;;;;6.00;85.32;98298.08;1839129;75;21001;-59
2022/01/04 04:26:21;;;;;;;2.87;0.70;;;;;;;6.00;85.31;98296.74;1836082;76;21009;-58
2022/01/04 04:28:47;;;;;;;1.67;0.60;;;;;;;5.98;85.40;98302.16;1840381;75;20974;-58
2022/01/04 04:31:14;;;;;;;1.47;0.63;;;;;;;5.96;85.48;98300.03;1836998;75;21010;-60
2022/01/04 04:33:40;;;;;;;0.70;0.50;;;;;;;5.96;85.55;98300.50;1839098;75;21181;-58
2022/01/04 04:36:08;;;;;;;0.63;0.50;;;;;;;5.94;85.58;98304.61;1838765;75;21489;-58
2022/01/04 04:38:35;;;;;;;0.70;0.60;;;;;;;5.96;85.67;98303.17;1838862;75;21056;-61
2022/01/04 04:41:01;;;;;;;1.23;0.60;;;;;;;5.98;85.67;98306.16;1838160;75;21060;-57
2022/01/04 04:43:28;;;;;;;1.23;0.80;;;;;;;5.99;85.74;98314.58;1842613;75;21067;-59
2022/01/04 04:45:54;;;;;;;1.73;0.70;;;;;;;5.99;85.71;98311.90;1836492;76;22345;-58
2022/01/04 04:48:21;;;;;;;0.93;0.87;;;;;;;5.99;85.73;98304.36;1838502;75;20910;-59
2022/01/04 04:50:47;;;;;;;1.83;0.90;;;;;;;6.01;85.84;98309.16;1840912;75;20873;-59
2022/01/04 04:53:14;;;;;;;2.00;0.70;;;;;;;6.03;85.86;98305.94;1844064;75;21815;-56
2022/01/04 04:55:40;;;;;;;1.40;0.80;;;;;;;6.03;85.76;98309.95;1840632;76;21698;-59
2022/01/04 04:58:07;;;;;;;1.63;0.90;;;;;;;6.03;85.73;98313.48;1768971;79;21450;-60
2022/01/04 05:00:34;;;;;;;2.50;0.90;;;;;;;6.01;85.66;98317.17;1764222;80;22082;-58
2022/01/04 05:03:00;;;;;;;1.80;0.90;;;;;;;5.99;85.65;98323.92;1782652;79;20900;-59
2022/01/04 05:05:26;;;;;;;1.10;0.87;;;;;;;5.97;85.65;98326.27;1760611;80;20968;-58
2022/01/04 05:07:52;;;;;;;1.43;0.80;;;;;;;5.93;85.66;98321.58;1767698;80;20936;-61
2022/01/04 05:10:19;;;;;;;1.53;1.00;;;;;;;5.92;85.75;98322.98;1777998;79;21058;-58
2022/01/04 05:12:47;;;;;;;1.60;1.17;;;;;;;5.91;85.81;98327.94;1770189;80;20945;-59
2022/01/04 05:15:13;;;;;;;2.40;0.90;;;;;;;5.91;85.73;98333.28;1797502;78;20931;-57
2022/01/04 05:17:41;;;;;;;2.53;1.20;;;;;;;5.89;85.81;98336.02;1779746;79;20916;-57
2022/01/04 05:20:09;;;;;;;1.33;0.90;;;;;;;5.90;85.85;98340.42;1774924;79;21433;-57
2022/01/04 05:22:35;;;;;;;1.53;0.93;;;;;;;5.90;85.91;98340.89;1769788;79;21782;-61
2022/01/04 05:25:03;;;;;;;2.33;1.00;;;;;;;5.90;85.89;98347.09;1778499;79;20891;-59
2022/01/04 05:27:31;;;;;;;2.37;0.97;;;;;;;5.92;85.92;98348.36;1771938;79;20942;-59
2022/01/04 05:29:57;;;;;;;1.00;0.90;;;;;;;5.93;85.90;98349.63;1795832;77;20926;-58
2022/01/04 05:32:24;;;;;;;1.53;0.90;;;;;;;5.92;85.82;98351.03;1797684;79;20973;-60
2022/01/04 05:34:50;;;;;;;1.87;0.97;;;;;;;5.93;85.87;98353.63;1796964;77;21745;-60
2022/01/04 05:37:17;;;;;;;1.20;0.90;;;;;;;5.95;85.88;98356.22;1795486;79;21274;-59
2022/01/04 05:39:43;;;;;;;1.00;0.80;;;;;;;5.95;85.83;98358.89;1791072;79;21352;-58
2022/01/04 05:42:10;;;;;;;1.57;0.70;;;;;;;5.97;85.75;98355.18;1779380;79;21110;-61
2022/01/04 05:44:37;;;;;;;1.00;0.83;;;;;;;5.98;85.77;98364.06;1776527;79;21110;-58
2022/01/04 05:47:06;;;;;;;1.27;0.83;;;;;;;5.96;85.68;98371.28;1775245;79;21775;-60
2022/01/04 05:49:33;;;;;;;2.27;0.87;;;;;;;5.94;85.61;98374.52;1770775;79;21033;-57
2022/01/04 05:51:59;;;;;;;1.50;0.90;;;;;;;5.91;85.56;98375.53;1771370;79;21100;-60
2022/01/04 05:54:26;;;;;;;1.00;0.80;;;;;;;5.87;85.55;98373.91;1760402;80;21463;-59
2022/01/04 05:56:53;;;;;;;2.80;0.80;;;;;;;5.84;85.56;98370.55;1772586;79;22114;-58
2022/01/04 05:59:19;;;;;;;1.10;0.77;;;;;;;5.81;85.53;98380.91;1772824;79;21072;-58
2022/01/04 06:01:46;;;;;;;1.07;0.77;;;;;;;5.80;85.61;98384.52;1777904;79;21016;-60
2022/01/04 06:04:12;;;;;;;1.83;0.90;;;;;;;5.79;85.64;98378.78;1777179;79;21039;-57
2022/01/04 06:06:41;;;;;;;1.73;0.90;;;;;;;5.79;85.64;98382.79;1780696;79;20969;-59
2022/01/04 06:09:17;;;;;;;1.73;1.03;;;;;;;5.79;85.67;98388.13;1778000;79;21104;-58
2022/01/04 06:17:00;;;;;;;1.60;0.93;;;;;;;5.80;85.59;98400.55;1773870;79;21576;-59
2022/01/04 06:19:27;;;;;;;2.90;1.10;;;;;;;5.82;85.64;98401.34;1775695;79;22021;-60
2022/01/04 06:21:53;;;;;;;1.40;0.80;;;;;;;5.80;85.54;98397.88;1778411;79;21512;-57
2022/01/04 06:24:19;;;;;;;0.90;0.80;;;;;;;5.80;85.52;98406.35;1774936;79;21976;-57
2022/01/04 06:26:46;;;;;;;3.07;0.80;;;;;;;5.81;85.57;98404.08;1776786;78;21223;-57
2022/01/04 06:29:14;;;;;;;2.27;0.90;;;;;;;5.83;85.57;98403.54;1777318;79;21577;-56
2022/01/04 06:31:42;;;;;;;1.10;0.80;;;;;;;5.84;85.54;98406.61;1767178;79;21011;-54
2022/01/04 06:34:08;;;;;;;0.87;0.70;;;;;;;5.86;85.53;98413.61;1763298;80;22304;-58
2022/01/04 06:36:34;;;;;;;0.73;0.70;;;;;;;5.87;85.49;98409.13;1765911;79;22449;-56
2022/01/04 06:39:01;;;;;;;1.30;0.80;;;;;;;5.87;85.39;98418.48;1763351;80;21055;-56
2022/01/04 06:41:27;;;;;;;0.97;0.87;;;;;;;5.86;85.36;98421.63;1759147;80;21101;-58
2022/01/04 06:43:53;;;;;;;1.10;0.80;;;;;;;5.84;85.28;98422.63;1765138;80;21038;-58
2022/01/04 06:46:19;;;;;;;0.80;0.70;;;;;;;5.83;85.26;98415.09;1778616;79;21076;-56
2022/01/04 06:48:46;;;;;;;1.90;0.80;;;;;;;5.83;85.26;98431.11;1782235;79;22770;-57
2022/01/04 06:51:12;;;;;;;2.43;0.90;;;;;;;5.82;85.22;98426.70;1794349;78;21433;-56
2022/01/04 06:53:39;;;;;;;1.10;0.77;;;;;;;5.84;85.21;98429.30;1762266;80;21352;-57
2022/01/04 06:56:05;;;;;;;1.30;0.70;;;;;;;5.85;85.01;98432.38;1758372;80;21067;-58
2022/01/04 06:58:33;;;;;;;5.63;0.80;;;;;;;5.84;84.96;98428.84;1762731;80;21094;-60
2022/01/04 07:00:59;;;;;;;2.00;1.30;;;;;;;5.86;84.82;98432.77;1767374;79;21088;-56
2022/01/04 07:03:26;;;;;;;0.70;0.70;;;;;;;5.86;84.83;98431.44;1789824;78;21131;-60
2022/01/04 07:05:52;;;;;;;1.70;0.77;;;;;;;5.90;84.75;98431.22;1765649;79;21104;-59
2022/01/04 07:08:20;;;;;;;1.10;0.80;;;;;;;5.93;84.68;98432.41;1780239;79;20917;-58
2022/01/04 07:10:46;;;;;;;1.43;0.80;;;;;;;5.95;84.64;98432.34;1782729;79;21038;-57
2022/01/04 07:13:13;;;;;;;1.17;0.80;;;;;;;5.98;84.57;98430.83;1766049;79;21078;-58
2022/01/04 07:15:40;;;;;;;1.00;0.80;;;;;;;5.99;84.56;98436.10;1760614;80;21576;-58
2022/01/04 07:18:07;;;;;;;1.40;0.90;;;;;;;6.00;84.47;98438.30;1765389;79;21356;-59
2022/01/04 07:20:35;;;;;;;2.10;0.80;;;;;;;6.01;84.37;98436.89;1778149;79;21102;-58
2022/01/04 07:23:03;;;;;;;1.00;0.70;;;;;;;6.00;84.19;98437.84;1775731;79;21275;-58
2022/01/04 07:25:29;;;;;;;1.33;1.00;;;;;;;5.98;84.18;98438.84;1776331;79;21073;-58
2022/01/04 07:27:56;;;;;;;1.70;0.77;;;;;;;6.00;84.13;98445.84;1766653;79;21533;-58
2022/01/04 07:30:23;;;;;;;1.87;1.17;;;;;;;6.04;84.04;98446.06;1789814;77;21721;-58
2022/01/04 07:32:49;;;;;;;2.17;1.20;;;;;;;6.08;83.89;98442.31;1762535;80;21090;-55
2022/01/04 07:35:16;;;;;;;1.00;0.83;;;;;;;6.12;83.81;98451.52;1782532;78;21136;-56
2022/01/04 07:37:43;;;;;;;3.40;1.30;;;;;;;6.14;83.60;98438.92;1777731;78;21150;-58
2022/01/04 07:40:11;;;;;;;4.00;0.97;;;;;;;6.14;83.47;98449.14;1764459;80;21080;-58
2022/01/04 07:42:39;;;;;;;2.67;1.00;;;;;;;6.11;83.18;98446.65;1762057;80;21574;-59
2022/01/04 07:45:06;;;;;;;1.03;0.83;;;;;;;6.11;83.20;98453.80;1765803;80;21507;-58
2022/01/04 07:47:32;;;;;;;1.77;0.93;;;;;;;6.11;83.13;98457.34;1762956;80;21083;-57
2022/01/04 07:49:59;;;;;;;1.30;0.93;;;;;;;6.13;83.01;98459.44;1769645;80;22483;-57
2022/01/04 07:52:25;;;;;;;1.30;1.00;;;;;;;6.14;83.04;98453.16;1788250;78;21679;-56
2022/01/04 07:54:51;;;;;;;2.77;1.00;;;;;;;6.17;82.94;98453.47;1793325;78;21535;-55
2022/01/04 07:57:19;;;;;;;1.10;1.00;;;;;;;6.19;82.82;98457.81;1778127;79;21000;-57
2022/01/04 07:59:48;;;;;;;2.67;1.13;;;;;;;6.21;82.74;98457.23;1781212;79;21507;-58
2022/01/04 08:02:14;;;;;;;2.87;1.10;;;;;;;6.23;82.66;98467.85;1781849;79;21077;-57
2022/01/04 08:04:40;;;;;;;2.50;1.00;;;;;;;6.27;82.57;98464.09;1780107;79;20914;-59
2022/01/04 08:07:06;;;;;;;1.93;1.10;;;;;;;6.29;82.52;98466.22;1775428;80;21819;-58
2022/01/04 08:09:34;;;;;;;3.50;1.10;;;;;;;6.29;82.29;98459.08;1770045;80;21327;-57
2022/01/04 08:12:01;;;;;;;2.07;1.13;;;;;;;6.28;82.16;98461.34;1792223;78;21515;-55
2022/01/04 08:14:28;;;;;;;2.87;1.20;;;;;;;6.29;82.04;98463.55;1764046;79;21098;-56
2022/01/04 08:16:54;;;;;;;3.03;1.17;;;;;;;6.29;82.01;98467.09;1757346;80;21087;-58
2022/01/04 08:19:21;;;;;;;1.53;1.10;;;;;;;6.29;81.94;98459.08;1777805;78;21108;-59
2022/01/04 08:21:48;;;;;;;2.13;1.20;;;;;;;6.32;81.85;98459.36;1757694;80;21478;-58
2022/01/04 08:24:14;;;;;;;4.77;1.47;;;;;;;6.34;81.74;98458.35;1716360;81;21032;-57
2022/01/04 08:26:41;;;;;;;3.67;2.37;;;;;;;6.38;81.64;98463.08;1792874;78;21609;-58
2022/01/04 08:29:08;;;;;;;3.50;1.70;;;;;;;6.41;81.52;98462.90;1766371;80;21030;-59
2022/01/04 08:31:34;;;;;;;4.43;1.63;;;;;;;6.41;81.40;98463.77;1760007;80;21074;-56
2022/01/04 08:34:02;;;;;;;8.33;1.90;;;;;;;6.40;81.19;98463.84;1759599;80;21610;-57
2022/01/04 08:36:29;;;;;;;4.50;1.73;;;;;;;6.37;81.09;98469.37;1760431;80;21677;-56
2022/01/04 08:38:57;;;;;;;4.23;1.27;;;;;;;6.34;81.13;98463.70;1766944;79;22540;-58
2022/01/04 08:41:23;;;;;;;4.67;1.40;;;;;;;6.34;81.07;98471.71;1766939;79;21033;-57
2022/01/04 08:43:49;;;;;;;4.70;1.80;;;;;;;6.35;80.92;98473.45;1794496;78;21097;-58
2022/01/04 08:46:16;;;;;;;4.77;1.60;;;;;;;6.36;80.88;98468.97;1764531;79;21335;-55
2022/01/04 08:48:42;;;;;;;3.13;1.47;;;;;;;6.35;80.76;98472.11;1756166;80;21127;-55
2022/01/04 08:51:09;;;;;;;5.73;1.83;;;;;;;6.35;80.80;98471.25;1748899;80;23146;-58
2022/01/04 08:53:35;;;;;;;5.13;1.63;;;;;;;6.37;80.69;98472.91;1792695;78;21020;-59
2022/01/04 08:56:02;;;;;;;4.33;1.90;;;;;;;6.41;80.73;98466.91;1788270;77;21032;-57
2022/01/04 08:58:29;;;;;;;5.93;2.50;;;;;;;6.45;80.62;98468.02;1794717;77;21037;-58
2022/01/04 09:00:56;;;;;;;4.20;2.03;;;;;;;6.48;80.54;98468.78;1793528;78;21697;-57
2022/01/04 09:03:24;;;;;;;4.40;2.00;;;;;;;6.51;80.56;98465.49;1786992;77;21106;-56
2022/01/04 09:05:51;;;;;;;7.30;2.60;;;;;;;6.49;80.34;98470.52;1772244;79;21127;-57
2022/01/04 09:08:17;;;;;;;4.63;2.17;;;;;;;6.48;80.17;98468.78;1769895;79;21073;-56
2022/01/04 09:10:44;;;;;;;4.70;1.87;;;;;;;6.45;80.09;98470.70;1765741;79;21045;-56
2022/01/04 09:13:20;;;;;;;5.30;2.60;;;;;;;6.44;80.13;98475.65;1767752;79;21072;-57
2022/01/04 09:20:54;;;;;;;6.87;2.08;;;;;;;6.53;80.15;98482.80;1771511;79;21321;-57
2022/01/04 09:23:21;;;;;;;4.43;1.70;;;;;;;6.58;80.04;98480.73;1792025;79;21114;-59
2022/01/04 09:25:48;;;;;;;2.93;1.90;;;;;;;6.60;79.90;98484.20;1781690;78;21124;-58
2022/01/04 09:28:15;;;;;;;7.50;2.10;;;;;;;6.62;79.83;98476.97;1778116;79;20964;-56
2022/01/04 09:30:42;;;;;;;5.13;2.03;;;;;;;6.67;79.86;98471.77;1780979;79;21025;-58
2022/01/04 09:33:08;;;;;;;2.63;2.00;;;;;;;6.73;79.71;98474.58;1728212;79;21562;-56
2022/01/04 09:35:36;;;;;;;3.33;1.75;;;;;;;6.76;79.59;98478.44;1798299;79;21505;-58
2022/01/04 09:38:05;;;;;;;4.47;2.03;;;;;;;6.77;79.50;98472.14;1758988;80;21284;-57
2022/01/04 09:40:33;;;;;;;2.72;1.50;;;;;;;6.77;79.25;98477.49;1780006;79;21159;-57
2022/01/04 09:43:02;;;;;;;3.42;1.87;;;;;;;6.75;79.10;98485.59;1776741;79;21108;-57
2022/01/04 09:45:28;;;;;;;3.00;1.47;;;;;;;6.74;79.02;98485.20;1780845;79;21338;-55
2022/01/04 09:47:55;;;;;;;2.87;1.80;;;;;;;6.75;78.86;98480.72;1799714;77;20965;-55
2022/01/04 09:50:21;;;;;;;5.15;2.10;;;;;;;6.74;78.64;98475.84;1777234;79;21075;-55
2022/01/04 09:52:49;;;;;;;3.77;1.70;;;;;;;6.73;78.57;98478.59;1776225;79;21128;-58
2022/01/04 09:55:16;;;;;;;5.05;2.17;;;;;;;6.71;78.37;98480.50;1775221;79;21072;-57
2022/01/04 09:57:44;;;;;;;6.20;2.10;;;;;;;6.66;78.30;98483.87;1780558;79;21078;-55
2022/01/04 10:00:15;;;;;;;4.20;2.10;;;;;;;6.63;78.38;98488.06;1779601;79;21497;-58
2022/01/04 10:02:43;;;;;;;4.50;1.90;;;;;;;6.63;78.43;98482.24;1777535;80;20926;-56
2022/01/04 10:05:19;;;;;;;4.15;1.52;;;;;;;6.63;78.27;98484.92;1775917;79;21086;-58
2022/01/04 10:07:48;;;;;;;4.97;1.87;;;;;;;6.64;78.24;98489.30;1780921;79;21036;-58
2022/01/04 10:10:18;;;;;;;4.45;1.40;;;;;;;6.65;78.17;98485.68;1778011;79;21029;-56
2022/01/04 10:12:56;;;;;;;4.70;1.67;;;;;;;6.68;78.11;98486.00;1782125;79;21080;-57
2022/01/04 10:15:43;;;;;;;6.28;2.08;;;;;;;6.68;78.04;98484.19;1775723;79;20902;-58
2022/01/04 10:18:20;;;;;;;4.83;3.00;;;;;;;6.67;77.92;98481.12;1783006;79;21809;-57
2022/01/04 10:20:52;;;;;;;5.10;2.03;;;;;;;6.67;77.91;98486.47;1776402;79;20929;-58
2022/01/04 10:23:22;;;;;;;2.62;1.82;;;;;;;6.65;77.89;98482.14;1786129;79;21009;-58
2022/01/04 10:25:51;;;;;;;3.50;1.45;;;;;;;6.65;77.89;98487.02;1769793;79;21097;-57
2022/01/04 10:28:31;;;;;;;5.10;2.00;;;;;;;6.65;77.86;98484.34;1793939;78;22499;-57
2022/01/04 10:31:14;;;;;;;7.03;2.57;;;;;;;6.65;77.76;98484.34;1780982;79;21264;-57
2022/01/04 10:33:40;;;;;;;3.07;1.50;;;;;;;6.67;77.60;98496.30;1762470;79;21059;-55
2022/01/04 10:36:11;;;;;;;4.22;1.72;;;;;;;6.70;77.61;98494.34;1795091;78;20879;-56
2022/01/04 10:38:41;;;;;;;4.77;2.03;;;;;;;6.74;77.47;98491.88;1756289;79;21018;-59
2022/01/04 10:41:25;;;;;;;3.93;1.70;;;;;;;6.74;77.26;98491.88;1773680;79;22654;-58
2022/01/04 10:43:58;;;;;;;5.27;1.77;;;;;;;6.71;77.18;98488.05;1781547;79;21087;-55
2022/01/04 10:46:45;;;;;;;4.77;1.70;;;;;;;6.71;77.14;98488.52;1781793;79;21901;-59
2022/01/04 10:49:23;;;;;;;5.20;1.30;;;;;;;6.73;77.20;98498.17;1781651;79;21441;-55
2022/01/04 10:52:06;;;;;;;5.63;1.20;;;;;;;6.76;77.09;98487.80;1784530;78;20980;-58
2022/01/04 10:54:33;;;;;;;3.40;1.15;;;;;;;6.79;77.09;98484.50;1781608;78;20981;-58
2022/01/04 10:57:06;;;;;;;3.90;1.72;;;;;;;6.83;77.16;98486.05;1786086;79;21055;-58
2022/01/04 10:59:33;;;;;;;7.03;1.90;;;;;;;6.87;77.19;98479.21;1786528;79;20890;-57
2022/01/04 11:02:01;;;;;;;5.63;1.53;;;;;;;6.90;77.09;98479.89;1783548;79;20972;-57
2022/01/04 11:04:27;;;;;;;5.07;2.13;;;;;;;6.92;76.91;98480.69;1782900;79;20862;-58
2022/01/04 11:07:01;;;;;;;6.55;2.77;;;;;;;6.94;76.82;98479.27;1782787;79;20957;-58
2022/01/04 11:09:30;;;;;;;6.60;1.70;;;;;;;6.92;76.70;98476.67;1784483;79;21132;-56
2022/01/04 11:11:56;;;;;;;5.85;1.98;;;;;;;6.89;76.50;98479.50;1784119;79;20941;-57
2022/01/04 11:14:24;;;;;;;8.68;1.10;;;;;;;6.89;76.56;98474.15;1785190;79;20962;-58
2022/01/04 11:16:52;;;;;;;5.75;1.30;;;;;;;6.91;76.61;98473.59;1782202;79;20904;-59
2022/01/04 11:19:19;;;;;;;3.08;1.20;;;;;;;6.94;76.42;98475.26;1777667;79;21052;-59
2022/01/04 11:21:46;;;;;;;5.63;1.60;;;;;;;6.94;76.21;98477.93;1779043;79;21125;-57
2022/01/04 11:24:16;;;;;;;4.13;1.40;;;;;;;6.96;76.10;98476.91;1779217;79;21143;-56
2022/01/04 11:26:44;;;;;;;4.10;1.40;;;;;;;6.97;75.92;98479.98;1777821;79;21061;-58
2022/01/04 11:29:10;;;;;;;8.83;1.32;;;;;;;6.99;75.83;98473.19;1776577;79;21099;-59
2022/01/04 11:32:01;;;;;;;6.17;1.57;;;;;;;7.00;75.73;98471.77;1776525;79;21092;-58
2022/01/04 11:35:16;;;;;;;3.77;1.42;;;;;;;7.00;75.59;98464.22;1780804;78;21344;-58
2022/01/04 11:37:57;;;;;;;4.30;1.50;;;;;;;7.02;75.51;98465.88;1760005;80;21116;-56
2022/01/04 11:40:35;;;;;;;4.65;1.00;;;;;;;7.04;75.24;98471.14;1796304;78;21005;-57
2022/01/04 11:43:04;;;;;;;4.83;1.20;;;;;;;7.03;75.13;98479.64;1791195;78;21056;-56
2022/01/04 11:45:41;;;;;;;4.78;1.22;;;;;;;7.04;75.08;98477.83;1766696;80;22198;-57
2022/01/04 11:48:27;;;;;;;3.92;1.42;;;;;;;7.05;74.90;98483.58;1792180;78;22284;-58
2022/01/04 11:50:59;;;;;;;4.43;1.20;;;;;;;7.09;74.91;98482.45;1786509;78;21535;-58
2022/01/04 11:53:25;;;;;;;4.97;1.05;;;;;;;7.12;74.71;98486.31;1763295;80;21354;-57
2022/01/04 11:56:03;;;;;;;3.72;1.07;;;;;;;7.12;74.62;98480.48;1767123;79;21148;-55
2022/01/04 11:58:51;;;;;;;5.47;1.30;;;;;;;7.13;74.49;98484.89;1764728;79;21639;-59
2022/01/04 12:01:27;;;;;;;4.00;1.00;;;;;;;7.13;74.38;98478.67;1759741;80;21141;-58